sensor_id;sensor_type;location;lat;lon;timestamp;temperature;humidity
1015;DHT22;8170;48.118;11.628;2023-04-25T00:00:20;7.60;99.90
1015;DHT22;8170;48.118;11.628;2023-04-25T00:01:23;7.60;99.90
1015;DHT22;8170;48.118;11.628;2023-04-25T00:02:26;7.70;99.90
1015;DHT22;8170;48.118;11.628;2023-04-25T00:03:30;7.70;99.90
1015;DHT22;8170;48.118;11.628;2023-04-25T00:04:41;7.70;99.90
1015;DHT22;8170;48.118;11.628;2023-04-25T00:05:49;7.60;99.90
1015;DHT22;8170;48.118;11.628;2023-04-25T00:06:54;7.70;99.90
1015;DHT22;8170;48.118;11.628;2023-04-25T00:08:08;7.70;99.90
1015;DHT22;8170;48.118;11.628;2023-04-25T00:09:22;7.70;99.90
1015;DHT22;8170;48.118;11.628;2023-04-25T00:10:31;7.80;99.90
1015;DHT22;8170;48.118;11.628;2023-04-25T00:11:39;7.80;99.90
1015;DHT22;8170;48.118;11.628;2023-04-25T00:12:47;7.80;99.90
1015;DHT22;8170;48.118;11.628;2023-04-25T00:13:55;7.80;99.90
1015;DHT22;8170;48.118;11.628;2023-04-25T00:15:00;7.80;99.90
1015;DHT22;8170;48.118;11.628;2023-04-25T00:17:09;7.80;99.90
1015;DHT22;8170;48.118;11.628;2023-04-25T00:18:13;7.90;99.90
1015;DHT22;8170;48.118;11.628;2023-04-25T00:19:18;7.90;99.90
1015;DHT22;8170;48.118;11.628;2023-04-25T00:20:20;7.90;99.90
1015;DHT22;8170;48.118;11.628;2023-04-25T00:21:25;7.90;99.90
1015;DHT22;8170;48.118;11.628;2023-04-25T00:22:33;7.90;99.90
1015;DHT22;8170;48.118;11.628;2023-04-25T00:23:52;7.90;99.90
1015;DHT22;8170;48.118;11.628;2023-04-25T00:24:57;7.90;99.90
1015;DHT22;8170;48.118;11.628;2023-04-25T00:26:03;8.00;99.90
1015;DHT22;8170;48.118;11.628;2023-04-25T00:28:33;7.90;99.90
1015;DHT22;8170;48.118;11.628;2023-04-25T00:29:43;7.90;99.90
1015;DHT22;8170;48.118;11.628;2023-04-25T00:30:45;8.00;99.90
1015;DHT22;8170;48.118;11.628;2023-04-25T00:31:49;8.00;99.90
1015;DHT22;8170;48.118;11.628;2023-04-25T00:32:52;8.00;99.90
1015;DHT22;8170;48.118;11.628;2023-04-25T00:33:55;8.00;99.90
1015;DHT22;8170;48.118;11.628;2023-04-25T00:35:05;8.00;99.90
1015;DHT22;8170;48.118;11.628;2023-04-25T00:36:10;8.00;99.90
1015;DHT22;8170;48.118;11.628;2023-04-25T00:37:17;8.00;99.90
1015;DHT22;8170;48.118;11.628;2023-04-25T00:38:20;8.00;99.90
1015;DHT22;8170;48.118;11.628;2023-04-25T00:39:25;8.00;99.90
1015;DHT22;8170;48.118;11.628;2023-04-25T00:40:31;8.00;99.90
1015;DHT22;8170;48.118;11.628;2023-04-25T00:41:35;8.00;99.90
1015;DHT22;8170;48.118;11.628;2023-04-25T00:42:39;8.00;99.90
1015;DHT22;8170;48.118;11.628;2023-04-25T00:43:44;8.00;99.90
1015;DHT22;8170;48.118;11.628;2023-04-25T00:44:52;8.00;99.90
1015;DHT22;8170;48.118;11.628;2023-04-25T00:45:54;8.00;99.90
1015;DHT22;8170;48.118;11.628;2023-04-25T00:47:00;8.00;99.90
1015;DHT22;8170;48.118;11.628;2023-04-25T00:48:07;8.00;99.90
1015;DHT22;8170;48.118;11.628;2023-04-25T00:49:11;8.00;99.90
1015;DHT22;8170;48.118;11.628;2023-04-25T00:50:17;8.00;99.90
1015;DHT22;8170;48.118;11.628;2023-04-25T00:51:22;8.00;99.90
1015;DHT22;8170;48.118;11.628;2023-04-25T00:52:25;8.00;99.90
1015;DHT22;8170;48.118;11.628;2023-04-25T00:53:30;8.00;99.90
1015;DHT22;8170;48.118;11.628;2023-04-25T00:54:35;8.00;99.90
1015;DHT22;8170;48.118;11.628;2023-04-25T00:55:39;8.00;99.90
1015;DHT22;8170;48.118;11.628;2023-04-25T00:56:44;8.00;99.90
1015;DHT22;8170;48.118;11.628;2023-04-25T00:57:49;8.00;99.90
1015;DHT22;8170;48.118;11.628;2023-04-25T00:58:53;8.00;99.90
1015;DHT22;8170;48.118;11.628;2023-04-25T00:59:58;8.00;99.90
1015;DHT22;8170;48.118;11.628;2023-04-25T01:01:02;8.00;99.90
1015;DHT22;8170;48.118;11.628;2023-04-25T01:02:06;8.00;99.90
1015;DHT22;8170;48.118;11.628;2023-04-25T01:03:09;8.00;99.90
1015;DHT22;8170;48.118;11.628;2023-04-25T01:04:13;8.00;99.90
1015;DHT22;8170;48.118;11.628;2023-04-25T01:05:19;7.90;99.90
1015;DHT22;8170;48.118;11.628;2023-04-25T01:06:23;7.80;99.90
1015;DHT22;8170;48.118;11.628;2023-04-25T01:07:25;7.80;99.90
1015;DHT22;8170;48.118;11.628;2023-04-25T01:08:29;7.80;99.90
1015;DHT22;8170;48.118;11.628;2023-04-25T01:09:32;7.70;99.90
1015;DHT22;8170;48.118;11.628;2023-04-25T01:10:36;7.70;99.90
1015;DHT22;8170;48.118;11.628;2023-04-25T01:11:39;7.70;99.90
1015;DHT22;8170;48.118;11.628;2023-04-25T01:12:42;7.70;99.90
1015;DHT22;8170;48.118;11.628;2023-04-25T01:13:44;7.70;99.90
1015;DHT22;8170;48.118;11.628;2023-04-25T01:14:47;7.70;99.90
1015;DHT22;8170;48.118;11.628;2023-04-25T01:15:50;7.70;99.90
1015;DHT22;8170;48.118;11.628;2023-04-25T01:16:54;7.70;99.90
1015;DHT22;8170;48.118;11.628;2023-04-25T01:17:57;7.70;99.90
1015;DHT22;8170;48.118;11.628;2023-04-25T01:19:05;7.70;99.90
1015;DHT22;8170;48.118;11.628;2023-04-25T01:20:11;7.70;99.90
1015;DHT22;8170;48.118;11.628;2023-04-25T01:21:17;7.60;99.90
1015;DHT22;8170;48.118;11.628;2023-04-25T01:22:21;7.60;99.90
1015;DHT22;8170;48.118;11.628;2023-04-25T01:23:25;7.60;99.90
1015;DHT22;8170;48.118;11.628;2023-04-25T01:24:28;7.60;99.90
1015;DHT22;8170;48.118;11.628;2023-04-25T01:25:31;7.50;99.90
1015;DHT22;8170;48.118;11.628;2023-04-25T01:26:35;7.50;99.90
1015;DHT22;8170;48.118;11.628;2023-04-25T01:27:39;7.50;99.90
1015;DHT22;8170;48.118;11.628;2023-04-25T01:28:42;7.40;99.90
1015;DHT22;8170;48.118;11.628;2023-04-25T01:29:46;7.30;99.90
1015;DHT22;8170;48.118;11.628;2023-04-25T01:30:50;7.40;99.90
1015;DHT22;8170;48.118;11.628;2023-04-25T01:31:55;7.30;99.90
1015;DHT22;8170;48.118;11.628;2023-04-25T01:32:59;7.40;99.90
1015;DHT22;8170;48.118;11.628;2023-04-25T01:34:03;7.40;99.90
1015;DHT22;8170;48.118;11.628;2023-04-25T01:35:08;7.40;99.90
1015;DHT22;8170;48.118;11.628;2023-04-25T01:36:11;7.40;99.90
1015;DHT22;8170;48.118;11.628;2023-04-25T01:37:17;7.40;99.90
1015;DHT22;8170;48.118;11.628;2023-04-25T01:38:20;7.40;99.90
1015;DHT22;8170;48.118;11.628;2023-04-25T01:39:23;7.40;99.90
1015;DHT22;8170;48.118;11.628;2023-04-25T01:40:27;7.40;99.90
1015;DHT22;8170;48.118;11.628;2023-04-25T01:41:32;7.40;99.90
1015;DHT22;8170;48.118;11.628;2023-04-25T01:42:35;7.40;99.90
1015;DHT22;8170;48.118;11.628;2023-04-25T01:43:39;7.30;99.90
1015;DHT22;8170;48.118;11.628;2023-04-25T01:44:41;7.30;99.90
1015;DHT22;8170;48.118;11.628;2023-04-25T01:45:45;7.30;99.90
1015;DHT22;8170;48.118;11.628;2023-04-25T01:46:49;7.30;99.90
1015;DHT22;8170;48.118;11.628;2023-04-25T01:47:51;7.30;99.90
1015;DHT22;8170;48.118;11.628;2023-04-25T01:48:54;7.30;99.90
1015;DHT22;8170;48.118;11.628;2023-04-25T01:49:57;7.30;99.90
1015;DHT22;8170;48.118;11.628;2023-04-25T01:51:00;7.20;99.90
1015;DHT22;8170;48.118;11.628;2023-04-25T01:52:04;7.20;99.90
1015;DHT22;8170;48.118;11.628;2023-04-25T01:53:09;7.20;99.90
1015;DHT22;8170;48.118;11.628;2023-04-25T01:54:12;7.20;99.90
1015;DHT22;8170;48.118;11.628;2023-04-25T01:55:16;7.20;99.90
1015;DHT22;8170;48.118;11.628;2023-04-25T01:56:30;7.20;99.90
1015;DHT22;8170;48.118;11.628;2023-04-25T01:57:34;7.20;99.90
1015;DHT22;8170;48.118;11.628;2023-04-25T01:58:37;7.20;99.90
1015;DHT22;8170;48.118;11.628;2023-04-25T01:59:59;7.20;99.90
1015;DHT22;8170;48.118;11.628;2023-04-25T02:01:13;7.10;99.90
1015;DHT22;8170;48.118;11.628;2023-04-25T02:02:29;7.00;99.90
1015;DHT22;8170;48.118;11.628;2023-04-25T02:03:32;7.00;99.90
1015;DHT22;8170;48.118;11.628;2023-04-25T02:04:38;7.00;99.90
1015;DHT22;8170;48.118;11.628;2023-04-25T02:05:41;7.00;99.90
1015;DHT22;8170;48.118;11.628;2023-04-25T02:06:46;7.00;99.90
1015;DHT22;8170;48.118;11.628;2023-04-25T02:07:49;7.00;99.90
1015;DHT22;8170;48.118;11.628;2023-04-25T02:08:54;7.10;99.90
1015;DHT22;8170;48.118;11.628;2023-04-25T02:09:56;7.00;99.90
1015;DHT22;8170;48.118;11.628;2023-04-25T02:11:01;7.00;99.90
1015;DHT22;8170;48.118;11.628;2023-04-25T02:12:12;7.10;99.90
1015;DHT22;8170;48.118;11.628;2023-04-25T02:13:35;7.00;99.90
1015;DHT22;8170;48.118;11.628;2023-04-25T02:14:50;7.10;99.90
1015;DHT22;8170;48.118;11.628;2023-04-25T02:16:00;7.00;99.90
1015;DHT22;8170;48.118;11.628;2023-04-25T02:17:05;7.00;99.90
1015;DHT22;8170;48.118;11.628;2023-04-25T02:18:08;7.00;99.90
1015;DHT22;8170;48.118;11.628;2023-04-25T02:19:12;7.00;99.90
1015;DHT22;8170;48.118;11.628;2023-04-25T02:20:14;7.00;99.90
1015;DHT22;8170;48.118;11.628;2023-04-25T02:21:19;7.00;99.90
1015;DHT22;8170;48.118;11.628;2023-04-25T02:22:21;6.90;99.90
1015;DHT22;8170;48.118;11.628;2023-04-25T02:23:24;6.90;99.90
1015;DHT22;8170;48.118;11.628;2023-04-25T02:24:28;7.00;99.90
1015;DHT22;8170;48.118;11.628;2023-04-25T02:25:31;7.00;99.90
1015;DHT22;8170;48.118;11.628;2023-04-25T02:26:34;7.00;99.90
1015;DHT22;8170;48.118;11.628;2023-04-25T02:27:37;7.00;99.90
1015;DHT22;8170;48.118;11.628;2023-04-25T02:28:40;7.00;99.90
1015;DHT22;8170;48.118;11.628;2023-04-25T02:29:44;7.00;99.90
1015;DHT22;8170;48.118;11.628;2023-04-25T02:30:46;6.90;99.90
1015;DHT22;8170;48.118;11.628;2023-04-25T02:31:49;6.90;99.90
1015;DHT22;8170;48.118;11.628;2023-04-25T02:32:52;6.90;99.90
1015;DHT22;8170;48.118;11.628;2023-04-25T02:33:55;6.90;99.90
1015;DHT22;8170;48.118;11.628;2023-04-25T02:34:57;6.90;99.90
1015;DHT22;8170;48.118;11.628;2023-04-25T02:36:06;6.90;99.90
1015;DHT22;8170;48.118;11.628;2023-04-25T02:37:08;6.90;99.90
1015;DHT22;8170;48.118;11.628;2023-04-25T02:38:12;7.00;99.90
1015;DHT22;8170;48.118;11.628;2023-04-25T02:39:14;7.00;99.90
1015;DHT22;8170;48.118;11.628;2023-04-25T02:40:19;7.00;99.90
1015;DHT22;8170;48.118;11.628;2023-04-25T02:41:21;7.00;99.90
1015;DHT22;8170;48.118;11.628;2023-04-25T02:42:25;7.00;99.90
1015;DHT22;8170;48.118;11.628;2023-04-25T02:43:27;7.00;99.90
1015;DHT22;8170;48.118;11.628;2023-04-25T02:44:31;7.00;99.90
1015;DHT22;8170;48.118;11.628;2023-04-25T02:45:33;7.00;99.90
1015;DHT22;8170;48.118;11.628;2023-04-25T02:46:37;7.00;99.90
1015;DHT22;8170;48.118;11.628;2023-04-25T02:47:40;6.90;99.90
1015;DHT22;8170;48.118;11.628;2023-04-25T02:48:45;6.90;99.90
1015;DHT22;8170;48.118;11.628;2023-04-25T02:49:48;6.90;99.90
1015;DHT22;8170;48.118;11.628;2023-04-25T02:50:51;6.90;99.90
1015;DHT22;8170;48.118;11.628;2023-04-25T02:51:53;6.90;99.90
1015;DHT22;8170;48.118;11.628;2023-04-25T02:52:57;6.90;99.90
1015;DHT22;8170;48.118;11.628;2023-04-25T02:54:04;6.90;99.90
1015;DHT22;8170;48.118;11.628;2023-04-25T02:55:15;7.00;99.90
1015;DHT22;8170;48.118;11.628;2023-04-25T02:56:21;7.00;99.90
1015;DHT22;8170;48.118;11.628;2023-04-25T02:57:26;7.00;99.90
1015;DHT22;8170;48.118;11.628;2023-04-25T02:58:33;7.00;99.90
1015;DHT22;8170;48.118;11.628;2023-04-25T02:59:36;7.00;99.90
1015;DHT22;8170;48.118;11.628;2023-04-25T03:00:40;7.00;99.90
1015;DHT22;8170;48.118;11.628;2023-04-25T03:01:42;7.10;99.90
1015;DHT22;8170;48.118;11.628;2023-04-25T03:02:45;7.10;99.90
1015;DHT22;8170;48.118;11.628;2023-04-25T03:03:48;7.10;99.90
1015;DHT22;8170;48.118;11.628;2023-04-25T03:04:52;7.10;99.90
1015;DHT22;8170;48.118;11.628;2023-04-25T03:06:14;7.10;99.90
1015;DHT22;8170;48.118;11.628;2023-04-25T03:07:38;7.20;99.90
1015;DHT22;8170;48.118;11.628;2023-04-25T03:09:10;7.20;99.90
1015;DHT22;8170;48.118;11.628;2023-04-25T03:10:35;7.20;99.90
1015;DHT22;8170;48.118;11.628;2023-04-25T03:11:51;7.20;99.90
1015;DHT22;8170;48.118;11.628;2023-04-25T03:13:02;7.20;99.90
1015;DHT22;8170;48.118;11.628;2023-04-25T03:14:04;7.20;99.90
1015;DHT22;8170;48.118;11.628;2023-04-25T03:15:11;7.20;99.90
1015;DHT22;8170;48.118;11.628;2023-04-25T03:16:24;7.30;99.90
1015;DHT22;8170;48.118;11.628;2023-04-25T03:17:35;7.30;99.90
1015;DHT22;8170;48.118;11.628;2023-04-25T03:18:42;7.20;99.90
1015;DHT22;8170;48.118;11.628;2023-04-25T03:19:46;7.20;99.90
1015;DHT22;8170;48.118;11.628;2023-04-25T03:20:50;7.20;99.90
1015;DHT22;8170;48.118;11.628;2023-04-25T03:21:56;7.20;99.90
1015;DHT22;8170;48.118;11.628;2023-04-25T03:23:07;7.30;99.90
1015;DHT22;8170;48.118;11.628;2023-04-25T03:24:48;7.30;99.90
1015;DHT22;8170;48.118;11.628;2023-04-25T03:26:07;7.40;99.90
1015;DHT22;8170;48.118;11.628;2023-04-25T03:27:32;7.40;99.90
1015;DHT22;8170;48.118;11.628;2023-04-25T03:28:44;7.40;99.90
1015;DHT22;8170;48.118;11.628;2023-04-25T03:29:56;7.40;99.90
1015;DHT22;8170;48.118;11.628;2023-04-25T03:31:03;7.40;99.90
1015;DHT22;8170;48.118;11.628;2023-04-25T03:32:09;7.40;99.90
1015;DHT22;8170;48.118;11.628;2023-04-25T03:33:24;7.40;99.90
1015;DHT22;8170;48.118;11.628;2023-04-25T03:34:27;7.40;99.90
1015;DHT22;8170;48.118;11.628;2023-04-25T03:35:33;7.40;99.90
1015;DHT22;8170;48.118;11.628;2023-04-25T03:36:36;7.50;99.90
1015;DHT22;8170;48.118;11.628;2023-04-25T03:37:42;7.50;99.90
1015;DHT22;8170;48.118;11.628;2023-04-25T03:38:51;7.50;99.90
1015;DHT22;8170;48.118;11.628;2023-04-25T03:39:56;7.50;99.90
1015;DHT22;8170;48.118;11.628;2023-04-25T03:41:04;7.50;99.90
1015;DHT22;8170;48.118;11.628;2023-04-25T03:42:19;7.50;99.90
1015;DHT22;8170;48.118;11.628;2023-04-25T03:43:26;7.50;99.90
1015;DHT22;8170;48.118;11.628;2023-04-25T03:44:34;7.40;99.90
1015;DHT22;8170;48.118;11.628;2023-04-25T03:45:37;7.40;99.90
1015;DHT22;8170;48.118;11.628;2023-04-25T03:46:41;7.40;99.90
1015;DHT22;8170;48.118;11.628;2023-04-25T03:47:44;7.40;99.90
1015;DHT22;8170;48.118;11.628;2023-04-25T03:48:47;7.40;99.90
1015;DHT22;8170;48.118;11.628;2023-04-25T03:49:56;7.40;99.90
1015;DHT22;8170;48.118;11.628;2023-04-25T03:50:59;7.40;99.90
1015;DHT22;8170;48.118;11.628;2023-04-25T03:52:03;7.30;99.90
1015;DHT22;8170;48.118;11.628;2023-04-25T03:53:13;7.30;99.90
1015;DHT22;8170;48.118;11.628;2023-04-25T03:54:41;7.30;99.90
1015;DHT22;8170;48.118;11.628;2023-04-25T03:55:48;7.30;99.90
1015;DHT22;8170;48.118;11.628;2023-04-25T03:56:50;7.20;99.90
1015;DHT22;8170;48.118;11.628;2023-04-25T03:57:58;7.20;99.90
1015;DHT22;8170;48.118;11.628;2023-04-25T03:59:02;7.20;99.90
1015;DHT22;8170;48.118;11.628;2023-04-25T04:00:07;7.10;99.90
1015;DHT22;8170;48.118;11.628;2023-04-25T04:01:15;7.10;99.90
1015;DHT22;8170;48.118;11.628;2023-04-25T04:02:19;7.10;99.90
1015;DHT22;8170;48.118;11.628;2023-04-25T04:03:21;7.00;99.90
1015;DHT22;8170;48.118;11.628;2023-04-25T04:04:26;7.10;99.90
1015;DHT22;8170;48.118;11.628;2023-04-25T04:05:29;7.10;99.90
1015;DHT22;8170;48.118;11.628;2023-04-25T04:06:32;7.10;99.90
1015;DHT22;8170;48.118;11.628;2023-04-25T04:07:42;7.10;99.90
1015;DHT22;8170;48.118;11.628;2023-04-25T04:08:46;7.10;99.90
1015;DHT22;8170;48.118;11.628;2023-04-25T04:09:48;7.10;99.90
1015;DHT22;8170;48.118;11.628;2023-04-25T04:11:01;7.10;99.90
1015;DHT22;8170;48.118;11.628;2023-04-25T04:12:05;7.10;99.90
1015;DHT22;8170;48.118;11.628;2023-04-25T04:13:08;7.20;99.90
1015;DHT22;8170;48.118;11.628;2023-04-25T04:14:13;7.20;99.90
1015;DHT22;8170;48.118;11.628;2023-04-25T04:15:19;7.20;99.90
1015;DHT22;8170;48.118;11.628;2023-04-25T04:16:22;7.20;99.90
1015;DHT22;8170;48.118;11.628;2023-04-25T04:17:26;7.20;99.90
1015;DHT22;8170;48.118;11.628;2023-04-25T04:18:29;7.20;99.90
1015;DHT22;8170;48.118;11.628;2023-04-25T04:19:32;7.20;99.90
1015;DHT22;8170;48.118;11.628;2023-04-25T04:20:43;7.20;99.90
1015;DHT22;8170;48.118;11.628;2023-04-25T04:21:47;7.20;99.90
1015;DHT22;8170;48.118;11.628;2023-04-25T04:22:50;7.20;99.90
1015;DHT22;8170;48.118;11.628;2023-04-25T04:23:54;7.20;99.90
1015;DHT22;8170;48.118;11.628;2023-04-25T04:24:56;7.20;99.90
1015;DHT22;8170;48.118;11.628;2023-04-25T04:26:23;7.20;99.90
1015;DHT22;8170;48.118;11.628;2023-04-25T04:27:36;7.20;99.90
1015;DHT22;8170;48.118;11.628;2023-04-25T04:28:52;7.10;99.90
1015;DHT22;8170;48.118;11.628;2023-04-25T04:30:07;7.10;99.90
1015;DHT22;8170;48.118;11.628;2023-04-25T04:31:27;7.10;99.90
1015;DHT22;8170;48.118;11.628;2023-04-25T04:32:32;7.10;99.90
1015;DHT22;8170;48.118;11.628;2023-04-25T04:33:37;7.20;99.90
1015;DHT22;8170;48.118;11.628;2023-04-25T04:34:42;7.20;99.90
1015;DHT22;8170;48.118;11.628;2023-04-25T04:35:47;7.20;99.90
1015;DHT22;8170;48.118;11.628;2023-04-25T04:36:52;7.20;99.90
1015;DHT22;8170;48.118;11.628;2023-04-25T04:37:54;7.20;99.90
1015;DHT22;8170;48.118;11.628;2023-04-25T04:39:00;7.30;99.90
1015;DHT22;8170;48.118;11.628;2023-04-25T04:40:12;7.30;99.90
1015;DHT22;8170;48.118;11.628;2023-04-25T04:41:21;7.30;99.90
1015;DHT22;8170;48.118;11.628;2023-04-25T04:42:44;7.30;99.90
1015;DHT22;8170;48.118;11.628;2023-04-25T04:44:05;7.30;99.90
1015;DHT22;8170;48.118;11.628;2023-04-25T04:45:25;7.40;99.90
1015;DHT22;8170;48.118;11.628;2023-04-25T04:46:56;7.40;99.90
1015;DHT22;8170;48.118;11.628;2023-04-25T04:48:35;7.40;99.90
1015;DHT22;8170;48.118;11.628;2023-04-25T04:49:57;7.40;99.90
1015;DHT22;8170;48.118;11.628;2023-04-25T04:51:12;7.40;99.90
1015;DHT22;8170;48.118;11.628;2023-04-25T04:52:20;7.40;99.90
1015;DHT22;8170;48.118;11.628;2023-04-25T04:53:46;7.30;99.90
1015;DHT22;8170;48.118;11.628;2023-04-25T04:54:55;7.30;99.90
1015;DHT22;8170;48.118;11.628;2023-04-25T04:56:09;7.30;99.90
1015;DHT22;8170;48.118;11.628;2023-04-25T04:57:32;7.30;99.90
1015;DHT22;8170;48.118;11.628;2023-04-25T04:58:56;7.30;99.90
1015;DHT22;8170;48.118;11.628;2023-04-25T05:00:22;7.40;99.90
1015;DHT22;8170;48.118;11.628;2023-04-25T05:02:07;7.40;99.90
1015;DHT22;8170;48.118;11.628;2023-04-25T05:03:35;7.30;99.90
1015;DHT22;8170;48.118;11.628;2023-04-25T05:04:48;7.30;99.90
1015;DHT22;8170;48.118;11.628;2023-04-25T05:06:01;7.30;99.90
1015;DHT22;8170;48.118;11.628;2023-04-25T05:07:12;7.40;99.90
1015;DHT22;8170;48.118;11.628;2023-04-25T05:08:24;7.40;99.90
1015;DHT22;8170;48.118;11.628;2023-04-25T05:09:39;7.30;99.90
1015;DHT22;8170;48.118;11.628;2023-04-25T05:11:14;7.40;99.90
1015;DHT22;8170;48.118;11.628;2023-04-25T05:12:33;7.40;99.90
1015;DHT22;8170;48.118;11.628;2023-04-25T05:13:56;7.50;99.90
1015;DHT22;8170;48.118;11.628;2023-04-25T05:15:30;7.60;99.90
1015;DHT22;8170;48.118;11.628;2023-04-25T05:16:52;7.60;99.90
1015;DHT22;8170;48.118;11.628;2023-04-25T05:18:22;7.70;99.90
1015;DHT22;8170;48.118;11.628;2023-04-25T05:31:33;7.50;99.90
1015;DHT22;8170;48.118;11.628;2023-04-25T05:32:43;7.50;99.90
1015;DHT22;8170;48.118;11.628;2023-04-25T05:33:47;7.60;99.90
1015;DHT22;8170;48.118;11.628;2023-04-25T05:34:51;7.60;99.90
1015;DHT22;8170;48.118;11.628;2023-04-25T05:35:59;7.60;99.90
1015;DHT22;8170;48.118;11.628;2023-04-25T05:37:03;7.60;99.90
1015;DHT22;8170;48.118;11.628;2023-04-25T05:38:08;7.70;99.90
1015;DHT22;8170;48.118;11.628;2023-04-25T05:39:43;7.60;99.90
1015;DHT22;8170;48.118;11.628;2023-04-25T05:41:01;7.60;99.90
1015;DHT22;8170;48.118;11.628;2023-04-25T05:42:28;7.60;99.90
1015;DHT22;8170;48.118;11.628;2023-04-25T05:43:52;7.70;99.90
1015;DHT22;8170;48.118;11.628;2023-04-25T05:45:34;7.60;99.90
1015;DHT22;8170;48.118;11.628;2023-04-25T05:46:44;7.60;99.90
1015;DHT22;8170;48.118;11.628;2023-04-25T05:48:06;7.70;99.90
1015;DHT22;8170;48.118;11.628;2023-04-25T05:49:19;7.70;99.90
1015;DHT22;8170;48.118;11.628;2023-04-25T05:50:36;7.70;99.90
1015;DHT22;8170;48.118;11.628;2023-04-25T05:51:58;7.80;99.90
1015;DHT22;8170;48.118;11.628;2023-04-25T05:53:02;7.90;99.90
1015;DHT22;8170;48.118;11.628;2023-04-25T05:54:07;8.10;99.90
1015;DHT22;8170;48.118;11.628;2023-04-25T05:55:10;8.40;99.90
1015;DHT22;8170;48.118;11.628;2023-04-25T05:56:13;8.60;99.90
1015;DHT22;8170;48.118;11.628;2023-04-25T05:57:20;8.90;99.90
1015;DHT22;8170;48.118;11.628;2023-04-25T05:58:23;9.20;99.90
1015;DHT22;8170;48.118;11.628;2023-04-25T05:59:28;9.40;99.90
1015;DHT22;8170;48.118;11.628;2023-04-25T06:00:30;9.50;99.90
1015;DHT22;8170;48.118;11.628;2023-04-25T06:01:34;9.50;99.90
1015;DHT22;8170;48.118;11.628;2023-04-25T06:02:38;9.80;99.90
1015;DHT22;8170;48.118;11.628;2023-04-25T06:03:40;10.00;99.90
1015;DHT22;8170;48.118;11.628;2023-04-25T06:04:47;10.50;99.90
1015;DHT22;8170;48.118;11.628;2023-04-25T06:05:50;10.50;99.90
1015;DHT22;8170;48.118;11.628;2023-04-25T06:06:54;10.30;99.90
1015;DHT22;8170;48.118;11.628;2023-04-25T06:07:57;10.20;99.90
1015;DHT22;8170;48.118;11.628;2023-04-25T06:09:00;10.00;99.90
1015;DHT22;8170;48.118;11.628;2023-04-25T06:10:07;9.70;99.90
1015;DHT22;8170;48.118;11.628;2023-04-25T06:11:10;9.40;99.90
1015;DHT22;8170;48.118;11.628;2023-04-25T06:12:13;9.10;99.90
1015;DHT22;8170;48.118;11.628;2023-04-25T06:13:16;8.90;99.90
1015;DHT22;8170;48.118;11.628;2023-04-25T06:14:19;8.70;99.90
1015;DHT22;8170;48.118;11.628;2023-04-25T06:15:24;8.50;99.90
1015;DHT22;8170;48.118;11.628;2023-04-25T06:16:29;8.20;99.90
1015;DHT22;8170;48.118;11.628;2023-04-25T06:17:33;7.90;99.90
1015;DHT22;8170;48.118;11.628;2023-04-25T06:18:37;7.60;99.90
1015;DHT22;8170;48.118;11.628;2023-04-25T06:19:41;7.50;99.90
1015;DHT22;8170;48.118;11.628;2023-04-25T06:20:45;7.50;99.90
1015;DHT22;8170;48.118;11.628;2023-04-25T06:21:48;7.40;99.90
1015;DHT22;8170;48.118;11.628;2023-04-25T06:22:51;7.40;99.90
1015;DHT22;8170;48.118;11.628;2023-04-25T06:23:59;7.40;99.90
1015;DHT22;8170;48.118;11.628;2023-04-25T06:25:03;7.20;99.90
1015;DHT22;8170;48.118;11.628;2023-04-25T06:26:07;7.10;99.90
1015;DHT22;8170;48.118;11.628;2023-04-25T06:27:13;7.10;99.90
1015;DHT22;8170;48.118;11.628;2023-04-25T06:28:25;7.00;99.90
1015;DHT22;8170;48.118;11.628;2023-04-25T06:29:37;7.00;99.90
1015;DHT22;8170;48.118;11.628;2023-04-25T06:30:40;7.00;99.90
1015;DHT22;8170;48.118;11.628;2023-04-25T06:31:46;7.00;99.90
1015;DHT22;8170;48.118;11.628;2023-04-25T06:32:51;7.10;99.90
1015;DHT22;8170;48.118;11.628;2023-04-25T06:33:53;7.10;99.90
1015;DHT22;8170;48.118;11.628;2023-04-25T06:34:59;7.20;99.90
1015;DHT22;8170;48.118;11.628;2023-04-25T06:36:03;7.30;99.90
1015;DHT22;8170;48.118;11.628;2023-04-25T06:37:07;7.20;99.90
1015;DHT22;8170;48.118;11.628;2023-04-25T06:38:10;7.20;99.90
1015;DHT22;8170;48.118;11.628;2023-04-25T06:39:19;7.20;99.90
1015;DHT22;8170;48.118;11.628;2023-04-25T06:40:25;7.30;99.90
1015;DHT22;8170;48.118;11.628;2023-04-25T06:41:27;7.40;99.90
1015;DHT22;8170;48.118;11.628;2023-04-25T06:42:35;7.50;99.90
1015;DHT22;8170;48.118;11.628;2023-04-25T06:43:58;7.50;99.90
1015;DHT22;8170;48.118;11.628;2023-04-25T06:45:09;7.60;99.90
1015;DHT22;8170;48.118;11.628;2023-04-25T06:46:12;7.60;99.90
1015;DHT22;8170;48.118;11.628;2023-04-25T06:47:19;7.60;99.90
1015;DHT22;8170;48.118;11.628;2023-04-25T06:48:23;7.80;99.90
1015;DHT22;8170;48.118;11.628;2023-04-25T06:49:27;8.00;99.90
1015;DHT22;8170;48.118;11.628;2023-04-25T06:50:31;8.20;99.90
1015;DHT22;8170;48.118;11.628;2023-04-25T06:51:35;8.20;99.90
1015;DHT22;8170;48.118;11.628;2023-04-25T06:52:39;8.30;99.90
1015;DHT22;8170;48.118;11.628;2023-04-25T06:53:42;8.60;99.90
1015;DHT22;8170;48.118;11.628;2023-04-25T06:54:53;8.80;99.90
1015;DHT22;8170;48.118;11.628;2023-04-25T06:56:19;8.90;99.90
1015;DHT22;8170;48.118;11.628;2023-04-25T06:57:31;9.30;99.90
1015;DHT22;8170;48.118;11.628;2023-04-25T06:58:49;9.40;99.90
1015;DHT22;8170;48.118;11.628;2023-04-25T07:00:05;9.30;99.90
1015;DHT22;8170;48.118;11.628;2023-04-25T07:01:17;9.40;99.90
1015;DHT22;8170;48.118;11.628;2023-04-25T07:02:21;9.60;99.90
1015;DHT22;8170;48.118;11.628;2023-04-25T07:03:27;9.80;99.90
1015;DHT22;8170;48.118;11.628;2023-04-25T07:04:35;10.10;99.90
1015;DHT22;8170;48.118;11.628;2023-04-25T07:05:40;10.40;99.90
1015;DHT22;8170;48.118;11.628;2023-04-25T07:06:46;11.00;99.90
1015;DHT22;8170;48.118;11.628;2023-04-25T07:07:54;11.20;99.90
1015;DHT22;8170;48.118;11.628;2023-04-25T07:08:57;11.20;99.90
1015;DHT22;8170;48.118;11.628;2023-04-25T07:10:00;11.20;99.90
1015;DHT22;8170;48.118;11.628;2023-04-25T07:11:04;11.00;99.90
1015;DHT22;8170;48.118;11.628;2023-04-25T07:12:07;11.00;99.90
1015;DHT22;8170;48.118;11.628;2023-04-25T07:13:11;10.70;99.90
1015;DHT22;8170;48.118;11.628;2023-04-25T07:14:15;10.50;99.90
1015;DHT22;8170;48.118;11.628;2023-04-25T07:15:19;10.50;99.90
1015;DHT22;8170;48.118;11.628;2023-04-25T07:16:23;10.20;99.90
1015;DHT22;8170;48.118;11.628;2023-04-25T07:17:26;10.00;99.90
1015;DHT22;8170;48.118;11.628;2023-04-25T07:18:45;9.80;99.90
1015;DHT22;8170;48.118;11.628;2023-04-25T07:20:01;9.50;99.90
1015;DHT22;8170;48.118;11.628;2023-04-25T07:21:11;9.30;99.90
1015;DHT22;8170;48.118;11.628;2023-04-25T07:22:19;9.00;99.90
1015;DHT22;8170;48.118;11.628;2023-04-25T07:23:23;8.90;99.90
1015;DHT22;8170;48.118;11.628;2023-04-25T07:24:26;9.00;99.90
1015;DHT22;8170;48.118;11.628;2023-04-25T07:25:31;9.00;99.90
1015;DHT22;8170;48.118;11.628;2023-04-25T07:26:35;9.10;99.90
1015;DHT22;8170;48.118;11.628;2023-04-25T07:28:08;9.30;99.90
1015;DHT22;8170;48.118;11.628;2023-04-25T07:29:22;9.40;99.90
1015;DHT22;8170;48.118;11.628;2023-04-25T07:30:25;9.60;99.90
1015;DHT22;8170;48.118;11.628;2023-04-25T07:31:29;9.60;99.90
1015;DHT22;8170;48.118;11.628;2023-04-25T07:32:32;9.60;99.90
1015;DHT22;8170;48.118;11.628;2023-04-25T07:33:36;9.50;99.90
1015;DHT22;8170;48.118;11.628;2023-04-25T07:34:38;9.40;99.90
1015;DHT22;8170;48.118;11.628;2023-04-25T07:35:43;9.40;99.90